Flight Track Log - Related Links

Times and Time Zones

All times are in EDT time to prevent confusion due to time zone crossing. See the NKS138 flight status page for this flight to view local times or setup timezone preferences in your user account.

Time Position Orientation Groundspeed Altitude Reporting Facility
EDT Latitude Longitude Course Direction KTS MPH feet Rate Location/Type
Mon 09:41:12 AM 28.4360 -81.3220 360° North 149 171 200  Level FlightAware ADS-B
Mon 09:41:37 AM 28.4550 -81.3210 North 143 165 1,300 1,855 Climbing FlightAware ADS-B
Mon 09:42:07 AM 28.4770 -81.3190 North 176 203 1,900 1,333 Climbing FlightAware ADS-B
Mon 09:42:22 AM 28.4900 -81.3180 North 193 222 2,300 1,650 Climbing FlightAware ADS-B
Mon 09:42:47 AM 28.5140 -81.3150 North 208 239 3,000 1,650 Climbing FlightAware ADS-B
Mon 09:43:02 AM 28.5310 -81.3130 North 229 264 3,400 1,867 Climbing FlightAware ADS-B
Mon 09:43:32 AM 28.5650 -81.3160 356° North 261 300 4,400 2,727 Climbing FlightAware ADS-B
Mon 09:43:57 AM 28.5970 -81.3210 352° North 263 303 5,900 3,273 Climbing FlightAware ADS-B
Mon 09:44:27 AM 28.6340 -81.3260 353° North 277 319 7,400 3,200 Climbing FlightAware ADS-B
Mon 09:44:42 AM 28.6540 -81.3290 353° North 276 318 8,300 3,000 Climbing FlightAware ADS-B
Mon 09:45:07 AM 28.6870 -81.3330 354° North 276 318 9,400 2,550 Climbing FlightAware ADS-B
Mon 09:45:22 AM 28.7070 -81.3360 353° North 295 339 10,000 1,636 Climbing FlightAware ADS-B
Mon 09:46:02 AM 28.7650 -81.3440 353° North 328 377 10,900 1,482 Climbing FlightAware ADS-B
Mon 09:46:47 AM 28.8410 -81.3540 353° North 374 430 12,100 2,188 Climbing FlightAware ADS-B
Mon 09:47:27 AM 28.9090 -81.3630 353° North 372 428 14,000 2,471 Climbing FlightAware ADS-B
Mon 09:48:12 AM 28.9880 -81.3740 353° North 375 432 15,600 2,824 Climbing FlightAware ADS-B
Mon 09:48:52 AM 29.0560 -81.3840 353° North 361 415 18,000 3,525 Climbing FlightAware ADS-B
Mon 09:49:32 AM 29.1090 -81.4000 345° North 315 362 20,300 2,894 Climbing FlightAware ADS-B
Mon 09:50:17 AM 29.1750 -81.4140 350° North 321 369 22,100 1,624 Climbing FlightAware ADS-B
Mon 09:50:57 AM 29.2400 -81.4200 355° North 341 392 22,600 706 Climbing FlightAware ADS-B
Mon 09:51:42 AM 29.3180 -81.4260 356° North 354 407 23,100 660 Climbing FlightAware ADS-B
Mon 09:52:37 AM 29.4190 -81.4340 356° North 405 466 23,700 884 Climbing FlightAware ADS-B
Mon 09:53:17 AM 29.4990 -81.4400 356° North 423 487 24,500 1,050 Climbing FlightAware ADS-B
Mon 09:53:57 AM 29.5740 -81.4470 355° North 435 501 25,100 600 Climbing FlightAware ADS-B
Mon 09:54:57 AM 29.6840 -81.4570 355° North 432 497 25,500 1,260 Climbing FlightAware ADS-B
Mon 09:55:37 AM 29.7810 -81.4640 356° North 449 517 27,200 1,271 Climbing FlightAware ADS-B
Mon 09:56:22 AM 29.8580 -81.4700 356° North 449 517 27,300 1,280 Climbing FlightAware ADS-B
Mon 09:56:52 AM 29.9390 -81.4770 356° North 452 520 28,800 1,875 Climbing FlightAware ADS-B
Mon 09:57:42 AM 30.0440 -81.4850 356° North 453 521 29,800 1,145 Climbing FlightAware ADS-B
Mon 09:58:42 AM 30.1680 -81.4960 356° North 455 524 30,900 720 Climbing FlightAware ADS-B
Mon 09:59:22 AM 30.2550 -81.5030 356° North 455 524 31,000 75 Climbing FlightAware ADS-B
Mon 10:00:02 AM 30.3410 -81.5090 357° North 460 529 31,000  Level FlightAware ADS-B
Mon 10:00:32 AM 30.4030 -81.5050 North 474 545 31,000 320 Level FlightAware ADS-B
Mon 10:01:17 AM 30.4900 -81.4980 North 475 547 31,400 776 Climbing FlightAware ADS-B
Mon 10:01:57 AM 30.5900 -81.4900 North 477 549 32,100 1,120 Climbing FlightAware ADS-B
Mon 10:02:32 AM 30.6660 -81.4830 North 475 547 32,800 1,200 Climbing FlightAware ADS-B
Mon 10:03:17 AM 30.7560 -81.4760 North 469 540 33,700 1,333 Climbing FlightAware ADS-B
Mon 10:04:02 AM 30.8580 -81.4680 North 462 532 34,800 780 Climbing FlightAware ADS-B
Mon 10:04:57 AM 30.9680 -81.4590 North 459 528 35,000 126 Climbing FlightAware ADS-B
Mon 10:05:37 AM 31.0570 -81.4510 North 459 528 35,000  Level FlightAware ADS-B
Mon 10:06:17 AM 31.1290 -81.4450 North 459 528 35,000  Level FlightAware ADS-B
Mon 10:06:57 AM 31.2010 -81.4400 North 459 528 35,000  Level FlightAware ADS-B
Mon 10:07:37 AM 31.2730 -81.4340 North 459 528 35,000  Level FlightAware ADS-B
Mon 10:11:02 AM 31.7480 -81.3050 13° North 474 545 35,000  Level FlightAware ADS-B
Mon 10:11:42 AM 31.8330 -81.2830 12° North 475 547 35,000  Level FlightAware ADS-B
Mon 10:12:17 AM 31.9180 -81.2600 13° North 473 544 35,000  Level FlightAware ADS-B
Mon 10:13:07 AM 32.0140 -81.2340 13° North 474 545 35,000 267 Level FlightAware ADS-B
Mon 10:13:47 AM 32.1110 -81.2020 16° North 495 570 35,400 635 Climbing FlightAware ADS-B
Mon 10:14:32 AM 32.1960 -81.1240 38° Northeast 548 631 35,900 825 Climbing FlightAware ADS-B
Mon 10:15:07 AM 32.2470 -81.0450 53° Northeast 557 641 36,500 880 Climbing FlightAware ADS-B
Mon 10:15:47 AM 32.3110 -80.9470 52° Northeast 547 629 37,000 333 Climbing FlightAware ADS-B
Mon 10:16:37 AM 32.3880 -80.8280 53° Northeast 550 633 37,000  Level FlightAware ADS-B
Mon 10:17:17 AM 32.4530 -80.7270 53° Northeast 553 636 37,000  Level FlightAware ADS-B
Mon 10:18:02 AM 32.5220 -80.6200 53° Northeast 554 638 37,000  Level FlightAware ADS-B
Mon 10:18:42 AM 32.5850 -80.5230 52° Northeast 554 638 37,000  Level FlightAware ADS-B
Mon 10:19:22 AM 32.6490 -80.4240 52° Northeast 554 638 37,000  Level FlightAware ADS-B
Mon 10:20:07 AM 32.7140 -80.3210 53° Northeast 554 638 37,000  Level FlightAware ADS-B
Mon 10:20:47 AM 32.7790 -80.2200 53° Northeast 554 638 37,000  Level FlightAware ADS-B
Mon 10:21:32 AM 32.8480 -80.1110 53° Northeast 553 636 37,000  Level FlightAware ADS-B
Mon 10:22:12 AM 32.9160 -80.0220 48° Northeast 544 626 37,000  Level FlightAware ADS-B
Mon 10:22:52 AM 32.9910 -79.9440 41° Northeast 534 615 37,000  Level FlightAware ADS-B
Mon 10:23:37 AM 33.0760 -79.8630 39° Northeast 533 613 37,000  Level FlightAware ADS-B
Mon 10:24:17 AM 33.1540 -79.7870 39° Northeast 533 613 37,000  Level FlightAware ADS-B
Mon 10:24:57 AM 33.2290 -79.7140 39° Northeast 534 615 37,000  Level FlightAware ADS-B
Mon 10:25:42 AM 33.3150 -79.6300 39° Northeast 536 617 37,000  Level FlightAware ADS-B
Mon 10:26:22 AM 33.3930 -79.5550 39° Northeast 539 620 37,000  Level FlightAware ADS-B
Mon 10:27:07 AM 33.4830 -79.4660 40° Northeast 542 624 37,000  Level FlightAware ADS-B
Mon 10:27:47 AM 33.5600 -79.3910 39° Northeast 545 627 37,000  Level FlightAware ADS-B
Mon 10:28:32 AM 33.6480 -79.3040 39° Northeast 549 632 37,000  Level FlightAware ADS-B
Mon 10:29:12 AM 33.7260 -79.2270 39° Northeast 549 632 37,000  Level FlightAware ADS-B
Mon 10:29:57 AM 33.8150 -79.1390 39° Northeast 550 633 37,000  Level FlightAware ADS-B
Mon 10:30:37 AM 33.8860 -79.0690 39° Northeast 550 633 37,000  Level FlightAware ADS-B
Mon 10:31:17 AM 33.9720 -78.9830 40° Northeast 550 633 37,000  Level FlightAware ADS-B
Mon 10:32:02 AM 34.0570 -78.8980 40° Northeast 548 631 37,000  Level FlightAware ADS-B
Mon 10:32:42 AM 34.1340 -78.8210 40° Northeast 547 629 37,000  Level FlightAware ADS-B
Mon 10:33:22 AM 34.2160 -78.7400 39° Northeast 546 628 37,000  Level FlightAware ADS-B
Mon 10:34:17 AM 34.3150 -78.6410 40° Northeast 546 628 37,000  Level FlightAware ADS-B
Mon 10:35:07 AM 34.3990 -78.5590 39° Northeast 546 628 37,000  Level FlightAware ADS-B
Mon 10:35:47 AM 34.4650 -78.4930 39° Northeast 546 628 37,000  Level FlightAware ADS-B
Mon 10:36:27 AM 34.5320 -78.4280 39° Northeast 546 628 37,000  Level FlightAware ADS-B
Mon 10:37:07 AM 34.5990 -78.3620 39° Northeast 546 628 37,000  Level FlightAware ADS-B
Mon 10:37:47 AM 34.6660 -78.2970 39° Northeast 546 628 37,000  Level FlightAware ADS-B
Mon 10:38:27 AM 34.7320 -78.2310 39° Northeast 546 628 37,000  Level FlightAware ADS-B
Mon 10:39:17 AM 34.8160 -78.1480 39° Northeast 546 628 37,000  Level FlightAware ADS-B
Mon 10:39:57 AM 34.8830 -78.0830 39° Northeast 546 628 37,000  Level FlightAware ADS-B
Mon 10:40:37 AM 34.9490 -78.0170 39° Northeast 546 628 37,000  Level FlightAware ADS-B
Mon 10:41:17 AM 35.0160 -77.9510 39° Northeast 546 628 37,000  Level FlightAware ADS-B
Mon 10:42:07 AM 35.0990 -77.8680 39° Northeast 546 628 37,000  Level FlightAware ADS-B
Mon 10:42:47 AM 35.1660 -77.8020 39° Northeast 546 628 37,000  Level FlightAware ADS-B
Mon 10:43:27 AM 35.2330 -77.7360 39° Northeast 546 628 37,000 -1,624 Level FlightAware ADS-B
Mon 10:44:12 AM 35.4780 -77.4650 42° Northeast 533 613 34,700 -2,100 Descending FlightAware ADS-B
Mon 10:44:47 AM 35.5490 -77.4030 35° Northeast 537 618 34,200 -918 Descending FlightAware ADS-B
Mon 10:45:37 AM 35.6510 -77.3130 36° Northeast 535 616 33,400 -847 Descending FlightAware ADS-B
Mon 10:46:12 AM 35.7140 -77.2580 35° Northeast 533 613 33,000 -282 Descending FlightAware ADS-B
Mon 10:47:02 AM 35.8280 -77.1570 36° Northeast 542 624 33,000  Level FlightAware ADS-B
Mon 10:47:42 AM 35.9040 -77.0900 36° Northeast 535 616 33,000  Level FlightAware ADS-B
Mon 10:48:12 AM 35.9670 -77.0400 33° Northeast 530 610 33,000  Level FlightAware ADS-B
Mon 10:49:02 AM 36.0610 -76.9700 31° Northeast 530 610 33,000  Level FlightAware ADS-B
Mon 10:49:42 AM 36.1330 -76.9170 31° Northeast 530 610 33,000  Level FlightAware ADS-B
Mon 10:50:22 AM 36.2040 -76.8640 31° Northeast 530 610 33,000  Level FlightAware ADS-B
Mon 10:51:12 AM 36.2930 -76.7970 31° Northeast 530 610 33,000  Level FlightAware ADS-B
Mon 10:51:52 AM 36.3650 -76.7440 31° Northeast 530 610 33,000  Level FlightAware ADS-B
Mon 10:53:12 AM 36.6170 -76.5600 30° Northeast 540 621 33,000  Level FlightAware ADS-B
Mon 10:53:57 AM 36.7110 -76.4900 31° Northeast 541 623 33,000 -200 Level FlightAware ADS-B
Mon 10:54:42 AM 36.8070 -76.4180 31° Northeast 542 624 32,700 -675 Descending FlightAware ADS-B
Mon 10:55:17 AM 36.8860 -76.3590 31° Northeast 542 624 32,100 -635 Descending FlightAware ADS-B
Mon 10:56:07 AM 36.9840 -76.2850 31° Northeast 544 626 31,800 -571 Descending FlightAware ADS-B
Mon 10:57:02 AM 37.0970 -76.2000 31° Northeast 545 627 31,100 -1,152 Descending FlightAware ADS-B
Mon 10:58:12 AM 37.2500 -76.0840 31° Northeast 528 608 29,400 -1,370 Descending FlightAware ADS-B
Mon 10:58:34 AM 37.3103 -76.0389 31° Northeast 529 609 29,000 -453 Descending FlightAware ADS-B
Mon 10:59:05 AM 37.3748 -75.9898 31° Northeast 523 602 29,000  Level FlightAware ADS-B
Mon 10:59:35 AM 37.4374 -75.9420 31° Northeast 525 604 29,000  Level FlightAware ADS-B
Mon 11:00:09 AM 37.5079 -75.8881 31° Northeast 528 608 29,000  Level FlightAware ADS-B
Mon 11:00:40 AM 37.5730 -75.8381 31° Northeast 529 609 29,000 -871 Level FlightAware ADS-B
Mon 11:01:11 AM 37.6388 -75.7874 31° Northeast 532 612 28,100 -2,226 Descending FlightAware ADS-B
Mon 11:01:42 AM 37.7032 -75.7380 31° Northeast 535 616 26,700 -2,361 Descending FlightAware ADS-B
Mon 11:02:12 AM 37.7658 -75.6897 31° Northeast 521 600 25,700 -1,869 Descending FlightAware ADS-B
Mon 11:02:43 AM 37.8286 -75.6413 31° Northeast 508 585 24,800 -1,935 Descending FlightAware ADS-B
Mon 11:03:14 AM 37.8897 -75.5938 32° Northeast 496 571 23,700 -2,032 Descending FlightAware ADS-B
Mon 11:03:45 AM 37.9500 -75.5471 31° Northeast 488 562 22,700 -1,869 Descending FlightAware ADS-B
Mon 11:04:15 AM 38.0069 -75.5029 31° Northeast 472 543 21,800 -1,837 Descending FlightAware ADS-B
Mon 11:04:34 AM 38.0423 -75.4754 31° Northeast 466 536 21,200 -1,067 Descending FlightAware ADS-B
Mon 11:05:00 AM 38.0885 -75.4440 28° Northeast 443 510 21,000 -712 Descending FlightAware ADS-B
Mon 11:05:33 AM 38.1502 -75.4054 26° Northeast 440 506 20,500 -1,909 Descending FlightAware ADS-B
Mon 11:06:06 AM 38.2117 -75.3668 26° Northeast 451 519 18,900 -2,471 Descending FlightAware ADS-B
Mon 11:06:41 AM 38.2752 -75.3265 26° Northeast 443 510 17,700 -1,791 Descending FlightAware ADS-B
Mon 11:07:13 AM 38.3326 -75.2900 27° Northeast 427 491 16,900 -1,645 Descending FlightAware ADS-B
Mon 11:07:43 AM 38.3848 -75.2568 26° Northeast 415 478 16,000 -2,000 Descending FlightAware ADS-B
Mon 11:08:13 AM 38.4365 -75.2240 26° Northeast 407 468 14,900 -2,100 Descending FlightAware ADS-B
Mon 11:08:43 AM 38.4864 -75.1924 26° Northeast 399 459 13,900 -2,066 Descending FlightAware ADS-B
Mon 11:09:14 AM 38.5362 -75.1606 27° Northeast 394 453 12,800 -1,909 Descending FlightAware ADS-B
Mon 11:09:49 AM 38.5925 -75.1246 27° Northeast 381 438 11,800 -1,662 Descending FlightAware ADS-B
Mon 11:10:19 AM 38.6383 -75.0953 27° Northeast 369 425 11,000 -885 Descending FlightAware ADS-B
Mon 11:10:50 AM 38.6849 -75.0653 27° Northeast 357 411 10,900 -95 Descending FlightAware ADS-B
Mon 11:11:22 AM 38.7318 -75.0352 27° Northeast 355 409 10,900 -97 Level FlightAware ADS-B
Mon 11:11:52 AM 38.7763 -75.0067 27° Northeast 356 410 10,800 -400 Descending FlightAware ADS-B
Mon 11:12:22 AM 38.8205 -74.9785 26° Northeast 340 391 10,500 -873 Descending FlightAware ADS-B
Mon 11:12:47 AM 38.8546 -74.9564 27° Northeast 330 380 10,000 -1,350 Descending FlightAware ADS-B
Mon 11:13:02 AM 38.8749 -74.9433 27° Northeast 328 377 9,600 -1,355 Descending FlightAware ADS-B
Mon 11:13:18 AM 38.8957 -74.9299 27° Northeast 325 374 9,300 -1,313 Descending FlightAware ADS-B
Mon 11:13:34 AM 38.9179 -74.9156 27° Northeast 322 371 8,900 -1,622 Descending FlightAware ADS-B
Mon 11:13:55 AM 38.9447 -74.8982 27° Northeast 321 369 8,300 -1,579 Descending FlightAware ADS-B
Mon 11:14:12 AM 38.9677 -74.8835 26° Northeast 318 366 7,900 -1,091 Descending FlightAware ADS-B
Mon 11:14:28 AM 38.9876 -74.8705 27° Northeast 309 356 7,700 -750 Descending FlightAware ADS-B
Mon 11:14:44 AM 39.0075 -74.8576 27° Northeast 301 346 7,500 -774 Descending FlightAware ADS-B
Mon 11:14:59 AM 39.0270 -74.8450 27° Northeast 301 346 7,300 -774 Descending FlightAware ADS-B
Mon 11:15:15 AM 39.0466 -74.8322 27° Northeast 299 344 7,100 -581 Descending FlightAware ADS-B
Mon 11:15:30 AM 39.0654 -74.8201 27° Northeast 293 337 7,000 -563 Descending FlightAware ADS-B
Mon 11:15:47 AM 39.0851 -74.8073 27° Northeast 292 336 6,800 -727 Descending FlightAware ADS-B
Mon 11:16:03 AM 39.1042 -74.7950 27° Northeast 287 330 6,600 -774 Descending FlightAware ADS-B
Mon 11:16:18 AM 39.1228 -74.7831 26° Northeast 287 330 6,400 -750 Descending FlightAware ADS-B
Mon 11:16:35 AM 39.1425 -74.7710 25° Northeast 284 327 6,200 -1,235 Descending FlightAware ADS-B
Mon 11:16:52 AM 39.1615 -74.7595 25° Northeast 284 327 5,700 -1,588 Descending FlightAware ADS-B
Mon 11:17:09 AM 39.1836 -74.7458 26° Northeast 284 327 5,300 -1,273 Descending FlightAware ADS-B
Mon 11:17:25 AM 39.2016 -74.7348 25° Northeast 280 322 5,000 -1,313 Descending FlightAware ADS-B
Mon 11:17:41 AM 39.2198 -74.7236 25° Northeast 276 318 4,600 -1,313 Descending FlightAware ADS-B
Mon 11:17:57 AM 39.2380 -74.7122 26° Northeast 272 313 4,300 -1,161 Descending FlightAware ADS-B
Mon 11:18:12 AM 39.2557 -74.7014 25° Northeast 268 308 4,000 -1,313 Descending FlightAware ADS-B
Mon 11:18:29 AM 39.2741 -74.6899 26° Northeast 269 310 3,600 -1,588 Descending FlightAware ADS-B
Mon 11:18:46 AM 39.2932 -74.6778 26° Northeast 267 307 3,100 -1,313 Descending FlightAware ADS-B
Mon 11:19:01 AM 39.3097 -74.6675 26° Northeast 267 307 2,900 -343 Descending FlightAware ADS-B
Mon 11:19:21 AM 39.3330 -74.6523 27° Northeast 273 314 2,900 -207 Level FlightAware ADS-B
Mon 11:19:30 AM 39.3406 -74.6430 43° Northeast 278 320 2,800 -400 Descending FlightAware ADS-B
Mon 11:19:36 AM 39.3454 -74.6343 54° Northeast 277 319 2,800 -571 Level FlightAware ADS-B
Mon 11:19:51 AM 39.3554 -74.6133 58° Northeast 270 311 2,600 -581 Descending FlightAware ADS-B
Mon 11:20:07 AM 39.3655 -74.5923 58° Northeast 265 305 2,500 -563 Descending FlightAware ADS-B
Mon 11:20:23 AM 39.3759 -74.5706 58° Northeast 256 295 2,300 -720 Descending FlightAware ADS-B
Mon 11:20:32 AM 39.3809 -74.5596 60° Northeast 250 288 2,200 -720 Descending FlightAware ADS-B
Mon 11:20:48 AM 39.3900 -74.5388 60° Northeast 238 274 2,000 -692 Descending FlightAware ADS-B
Mon 11:20:58 AM 39.3953 -74.5277 58° Northeast 230 265 1,900 -571 Descending FlightAware ADS-B
Mon 11:21:09 AM 39.4017 -74.5165 54° Northeast 219 252 1,800 -632 Descending FlightAware ADS-B
Mon 11:21:17 AM 39.4077 -74.5096 42° Northeast 211 243 1,700 -923 Descending FlightAware ADS-B
Mon 11:21:22 AM 39.4119 -74.5068 27° Northeast 206 237 1,600 -360 Descending FlightAware ADS-B
Mon 11:22:07 AM 39.4450 -74.5050 North 182 209 1,400 -267 Descending FlightAware ADS-B

Login

Don't have an account? Register now (free) for customized features, flight alerts, and more!